Time;durP1;ratioP1;P1;durP2;ratioP2;P2;SDS_P1;SDS_P2;PMS_P1;PMS_P2;Temp;Humidity;BMP_temperature;BMP_pressure;BME280_temperature;BME280_humidity;BME280_pressure;Samples;Min_cycle;Max_cycle;Signal;HPM_P1;HPM_P2
2023/05/25 00:01:42;;;;;;;10.02;3.80;;;;;;;14.95;54.69;95867.91;5030519;28;20198;-87
2023/05/25 00:04:10;;;;;;;5.88;3.97;;;;;;;15.02;54.98;95871.28;5028045;28;20222;-88
2023/05/25 00:06:39;;;;;;;7.63;3.63;;;;;;;15.06;54.63;95864.72;5048432;28;20312;-87
2023/05/25 00:09:06;;;;;;;8.20;3.60;;;;;;;15.11;54.23;95859.75;5035330;28;20225;-87
2023/05/25 00:11:33;;;;;;;9.02;4.47;;;;;;;15.06;54.37;95862.13;5037268;28;20267;-87
2023/05/25 00:13:59;;;;;;;7.38;3.60;;;;;;;15.05;54.21;95864.91;5039919;28;20233;-87
2023/05/25 00:16:26;;;;;;;10.88;3.97;;;;;;;14.95;54.04;95872.28;5031680;28;20233;-87
2023/05/25 00:18:56;;;;;;;8.73;3.65;;;;;;;14.81;53.84;95874.88;5031543;28;20213;-88
2023/05/25 00:21:23;;;;;;;5.30;3.10;;;;;;;14.86;54.77;95869.88;5031561;28;20835;-87
2023/05/25 00:23:49;;;;;;;7.03;3.70;;;;;;;14.70;54.81;95872.81;5031709;28;20618;-87
2023/05/25 00:26:16;;;;;;;7.00;3.67;;;;;;;14.68;54.51;95877.41;5031890;28;20249;-87
2023/05/25 00:28:42;;;;;;;6.82;3.38;;;;;;;14.67;54.80;95859.44;5031722;28;20206;-87
2023/05/25 00:31:09;;;;;;;7.05;3.97;;;;;;;14.79;54.62;95861.28;5031153;28;20210;-87
2023/05/25 00:33:35;;;;;;;5.22;3.20;;;;;;;14.74;54.98;95858.47;5031144;28;20194;-87
2023/05/25 00:36:03;;;;;;;6.88;3.85;;;;;;;14.76;55.05;95856.50;5031463;28;20236;-88
2023/05/25 00:38:30;;;;;;;7.18;3.67;;;;;;;14.77;54.56;95852.91;5033000;28;20198;-88
2023/05/25 00:40:56;;;;;;;7.78;3.85;;;;;;;14.81;54.99;95863.69;5031040;28;20194;-88
2023/05/25 00:43:23;;;;;;;7.32;3.60;;;;;;;14.84;54.85;95858.91;5031087;28;20783;-87
2023/05/25 00:45:50;;;;;;;4.75;3.60;;;;;;;14.87;55.01;95855.13;5031193;28;20313;-87
2023/05/25 00:48:17;;;;;;;6.95;3.40;;;;;;;14.84;54.98;95840.75;5031026;28;20225;-87
2023/05/25 00:50:47;;;;;;;6.47;3.95;;;;;;;14.78;55.47;95838.16;5031392;28;20206;-87
2023/05/25 00:53:15;;;;;;;8.15;3.72;;;;;;;14.69;55.93;95842.72;5030746;28;20198;-87
2023/05/25 00:55:45;;;;;;;5.47;3.50;;;;;;;14.65;55.79;95846.69;5030899;28;20229;-87
2023/05/25 00:58:13;;;;;;;7.40;3.85;;;;;;;14.71;55.55;95845.91;5030837;28;20775;-87
2023/05/25 01:00:42;;;;;;;9.27;3.58;;;;;;;14.71;55.52;95840.72;5039493;28;20269;-87
2023/05/25 01:03:16;;;;;;;5.32;3.45;;;;;;;14.83;55.69;95846.94;5050179;28;20229;-87
2023/05/25 01:05:46;;;;;;;8.73;4.30;;;;;;;14.79;55.41;95852.72;5034550;28;20229;-87
2023/05/25 01:08:17;;;;;;;6.88;3.88;;;;;;;14.84;55.18;95850.31;5042228;28;20215;-87
2023/05/25 01:10:48;;;;;;;6.40;4.10;;;;;;;14.74;56.21;95848.13;5045326;28;20197;-87
2023/05/25 01:13:17;;;;;;;6.70;3.40;;;;;;;14.70;56.26;95852.09;5050211;28;20201;-88
2023/05/25 01:15:45;;;;;;;6.35;3.60;;;;;;;14.67;56.27;95849.06;5050431;28;20221;-87
2023/05/25 01:18:14;;;;;;;5.10;3.70;;;;;;;14.68;56.33;95850.69;5050674;28;20286;-87
2023/05/25 01:24:21;;;;;;;7.38;4.03;;;;;;;14.49;57.08;95852.22;5041405;28;20263;-87
2023/05/25 01:26:55;;;;;;;7.68;3.90;;;;;;;14.48;57.27;95840.25;5041943;28;20275;-88
2023/05/25 01:29:24;;;;;;;6.80;4.10;;;;;;;14.56;57.66;95847.88;5049887;28;20252;-88
2023/05/25 01:31:52;;;;;;;9.23;4.30;;;;;;;14.69;56.72;95844.50;5050330;28;20221;-88
2023/05/25 01:34:20;;;;;;;8.13;3.80;;;;;;;14.86;56.86;95841.34;5050492;28;20216;-89
2023/05/25 01:36:47;;;;;;;8.35;4.40;;;;;;;14.83;56.44;95841.75;5050694;28;20232;-88
2023/05/25 01:39:15;;;;;;;5.53;3.97;;;;;;;14.78;56.85;95846.72;5048901;28;20674;-88
2023/05/25 01:41:42;;;;;;;6.78;3.88;;;;;;;14.69;57.32;95849.69;5050169;28;20205;-89
2023/05/25 01:44:08;;;;;;;6.47;3.67;;;;;;;14.73;57.20;95849.09;5050002;28;20578;-88
2023/05/25 01:46:37;;;;;;;8.40;3.55;;;;;;;14.81;57.63;95848.94;5050824;28;20596;-89
2023/05/25 01:49:15;;;;;;;7.97;4.30;;;;;;;14.76;57.53;95856.50;5050505;28;20209;-88
2023/05/25 01:51:51;;;;;;;6.28;4.05;;;;;;;14.65;58.28;95864.03;5049935;28;20205;-88
2023/05/25 01:54:21;;;;;;;7.25;3.95;;;;;;;14.66;58.44;95870.81;5050386;28;20197;-88
2023/05/25 01:56:51;;;;;;;6.32;4.28;;;;;;;14.73;58.37;95867.25;5049824;28;20711;-88
2023/05/25 01:59:20;;;;;;;6.78;3.90;;;;;;;14.75;58.54;95865.28;5050139;28;20281;-88
2023/05/25 02:01:48;;;;;;;8.25;4.80;;;;;;;14.74;59.12;95862.88;5045796;28;20586;-87
2023/05/25 02:04:17;;;;;;;8.98;4.70;;;;;;;14.66;59.98;95860.44;5048608;28;20228;-89
2023/05/25 02:06:43;;;;;;;7.68;4.90;;;;;;;14.62;60.18;95854.06;5035873;28;20218;-88
2023/05/25 02:09:10;;;;;;;7.45;5.00;;;;;;;14.59;61.04;95852.66;5032066;28;20206;-89
2023/05/25 02:11:38;;;;;;;9.07;4.75;;;;;;;14.61;61.71;95857.66;5050018;28;20236;-88
2023/05/25 02:14:04;;;;;;;9.13;5.47;;;;;;;14.48;62.02;95853.19;5049700;28;20197;-88
2023/05/25 02:16:30;;;;;;;7.78;5.47;;;;;;;14.46;62.70;95850.00;5049907;28;20225;-88
2023/05/25 02:18:57;;;;;;;7.13;5.80;;;;;;;14.41;63.46;95847.22;5049772;28;20225;-88
2023/05/25 02:21:24;;;;;;;8.52;5.55;;;;;;;14.46;63.19;95844.81;5049762;28;20201;-90
2023/05/25 02:23:50;;;;;;;8.30;5.45;;;;;;;14.42;63.41;95844.44;5049783;28;20259;-87
2023/05/25 02:26:17;;;;;;;8.88;5.53;;;;;;;14.51;63.23;95847.63;5049714;28;20674;-87
2023/05/25 02:28:45;;;;;;;7.97;5.75;;;;;;;14.55;63.71;95846.25;5049306;28;20218;-88
2023/05/25 02:31:11;;;;;;;8.15;5.72;;;;;;;14.48;64.45;95838.47;5049768;28;20303;-87
2023/05/25 02:33:38;;;;;;;9.75;6.22;;;;;;;14.47;65.02;95841.25;5048636;28;20292;-88
2023/05/25 02:36:06;;;;;;;9.38;6.25;;;;;;;14.43;65.73;95834.88;5049522;28;20229;-88
2023/05/25 02:38:33;;;;;;;8.60;6.60;;;;;;;14.48;66.33;95835.06;5044432;28;20201;-88
2023/05/25 02:41:00;;;;;;;10.80;7.35;;;;;;;14.59;65.92;95844.09;5029643;28;20205;-88
2023/05/25 02:43:26;;;;;;;9.63;7.10;;;;;;;14.50;67.92;95843.44;5030053;28;20226;-88
2023/05/25 02:45:54;;;;;;;10.63;7.70;;;;;;;14.60;67.31;95827.56;5029432;28;20222;-88
2023/05/25 03:11:57;;;;;;;12.77;10.27;;;;;;;14.26;77.32;95838.72;5050377;28;20227;-88
2023/05/25 03:14:23;;;;;;;12.55;10.60;;;;;;;14.25;77.07;95839.72;5052681;28;20869;-88
2023/05/25 03:16:50;;;;;;;13.82;11.27;;;;;;;14.12;79.21;95840.47;5054755;28;20213;-88
2023/05/25 03:19:17;;;;;;;12.23;10.93;;;;;;;14.17;78.90;95838.13;5049532;28;20216;-88
2023/05/25 03:21:47;;;;;;;13.60;10.63;;;;;;;14.13;79.79;95842.88;5049407;28;20807;-87
2023/05/25 03:24:13;;;;;;;14.27;10.75;;;;;;;14.25;79.25;95845.69;5049297;28;20286;-88
2023/05/25 03:26:40;;;;;;;14.70;11.00;;;;;;;14.16;80.27;95845.09;5049501;28;20228;-87
2023/05/25 03:29:07;;;;;;;15.88;10.50;;;;;;;14.13;80.18;95847.25;5049197;28;20205;-87
2023/05/25 03:31:34;;;;;;;11.18;10.00;;;;;;;14.18;79.52;95852.66;5049007;28;20205;-88
2023/05/25 03:34:02;;;;;;;11.77;10.23;;;;;;;14.20;79.49;95852.47;5050189;28;20695;-87
2023/05/25 03:36:29;;;;;;;10.98;9.88;;;;;;;14.29;79.30;95851.31;5049229;28;20217;-88
2023/05/25 03:38:56;;;;;;;13.10;10.18;;;;;;;14.36;78.23;95846.97;5050577;28;20197;-88
2023/05/25 03:41:22;;;;;;;11.73;9.73;;;;;;;14.31;79.23;95846.72;5049111;28;20209;-88
2023/05/25 03:43:49;;;;;;;9.93;9.00;;;;;;;14.38;78.70;95852.75;5048876;28;20244;-88
2023/05/25 03:46:17;;;;;;;14.02;9.32;;;;;;;14.33;78.62;95855.91;5052827;28;20626;-88
2023/05/25 03:48:45;;;;;;;13.37;9.57;;;;;;;14.26;79.17;95856.88;5053137;28;20561;-88
2023/05/25 03:51:12;;;;;;;10.07;9.02;;;;;;;14.25;78.97;95860.44;5052861;28;20209;-87
2023/05/25 03:53:38;;;;;;;9.80;8.80;;;;;;;14.34;78.74;95864.47;5062133;28;20200;-88
2023/05/25 03:56:05;;;;;;;10.32;8.45;;;;;;;14.35;78.36;95853.94;5073054;28;20216;-87
2023/05/25 03:58:32;;;;;;;10.05;8.38;;;;;;;14.31;78.38;95857.88;5064589;28;20271;-88
2023/05/25 04:00:58;;;;;;;11.23;9.45;;;;;;;14.26;78.98;95859.44;5061846;28;20197;-88
2023/05/25 04:03:27;;;;;;;11.10;9.02;;;;;;;14.21;79.07;95857.47;5052003;28;20209;-88
2023/05/25 04:05:53;;;;;;;12.52;9.30;;;;;;;14.15;79.61;95863.41;5066122;28;20228;-88
2023/05/25 04:08:21;;;;;;;12.10;8.80;;;;;;;14.22;79.56;95868.63;5072525;28;20197;-87
2023/05/25 04:10:47;;;;;;;11.73;9.10;;;;;;;14.31;79.34;95860.47;5072107;28;20618;-87
2023/05/25 04:13:14;;;;;;;10.25;9.25;;;;;;;14.31;78.61;95863.06;5072035;28;20278;-88
2023/05/25 04:15:40;;;;;;;10.32;8.85;;;;;;;14.30;78.94;95877.00;5072275;28;20255;-89
2023/05/25 04:18:07;;;;;;;13.00;8.65;;;;;;;14.17;79.47;95864.00;5072053;28;20204;-88
2023/05/25 04:20:35;;;;;;;11.27;9.23;;;;;;;14.20;79.73;95868.00;5071977;28;20197;-88
2023/05/25 04:23:01;;;;;;;10.45;8.93;;;;;;;14.27;79.38;95876.59;5072243;28;20196;-88
2023/05/25 04:25:28;;;;;;;10.27;8.43;;;;;;;14.26;79.63;95883.56;5072072;28;20594;-88
2023/05/25 04:27:55;;;;;;;11.40;8.65;;;;;;;14.37;79.62;95884.81;5072061;28;20200;-88
2023/05/25 04:30:22;;;;;;;11.13;8.63;;;;;;;14.48;79.00;95889.47;5072174;28;20701;-88
2023/05/25 04:32:49;;;;;;;10.73;7.93;;;;;;;14.65;78.00;95888.16;5071794;28;20201;-88
2023/05/25 04:38:38;;;;;;;9.77;8.40;;;;;;;14.47;79.00;95874.91;5065389;28;20562;-89
2023/05/25 04:47:48;;;;;;;12.23;8.65;;;;;;;14.52;79.75;95883.72;5051901;28;20192;-88
2023/05/25 04:50:15;;;;;;;10.15;8.15;;;;;;;14.52;79.79;95870.78;5066934;28;20232;-88
2023/05/25 04:52:41;;;;;;;10.75;8.65;;;;;;;14.67;79.29;95877.59;5071371;28;20254;-87
2023/05/25 05:18:41;;;;;;;11.38;8.65;;;;;;;14.56;81.41;95917.81;5052044;28;20239;-88
2023/05/25 05:21:08;;;;;;;10.60;8.63;;;;;;;14.50;81.41;95903.84;5058905;28;20204;-87
2023/05/25 05:23:35;;;;;;;10.35;8.77;;;;;;;14.67;80.18;95906.09;5050454;28;20716;-88
2023/05/25 05:26:03;;;;;;;11.05;9.10;;;;;;;14.67;80.11;95909.50;5050436;28;21186;-87
2023/05/25 05:28:30;;;;;;;10.18;9.20;;;;;;;14.64;80.24;95906.47;5050490;28;20793;-89
2023/05/25 05:30:57;;;;;;;10.45;8.95;;;;;;;14.65;79.67;95908.09;5050483;28;20197;-88
2023/05/25 05:33:23;;;;;;;11.93;9.95;;;;;;;14.69;79.64;95909.28;5051009;28;20209;-88
2023/05/25 05:35:52;;;;;;;25.20;22.02;;;;;;;14.70;80.38;95913.50;5050779;28;20226;-87
2023/05/25 05:38:21;;;;;;;14.65;10.02;;;;;;;14.67;80.01;95917.25;5052223;28;20190;-87
2023/05/25 05:40:50;;;;;;;12.98;10.88;;;;;;;14.72;80.13;95914.09;5050385;28;20581;-88
2023/05/25 05:43:25;;;;;;;11.88;10.30;;;;;;;14.77;80.47;95922.91;5050527;28;20635;-88
2023/05/25 05:45:58;;;;;;;11.27;9.57;;;;;;;14.78;79.75;95921.09;5057331;28;20239;-87
2023/05/25 05:48:25;;;;;;;13.18;9.40;;;;;;;14.80;79.87;95917.34;5070413;28;20571;-87
2023/05/25 05:50:53;;;;;;;10.98;9.13;;;;;;;14.86;79.96;95919.13;5061897;28;20572;-88
2023/05/25 05:53:19;;;;;;;15.45;9.75;;;;;;;14.86;79.74;95923.50;5070550;28;20583;-89
2023/05/25 06:02:53;;;;;;;10.50;8.95;;;;;;;14.75;79.81;95927.47;5048998;28;20216;-88
2023/05/25 06:05:27;;;;;;;11.63;9.23;;;;;;;14.71;80.80;95925.47;5056473;28;20274;-88
2023/05/25 06:07:55;;;;;;;10.57;9.48;;;;;;;14.64;81.26;95932.41;5049760;28;20189;-88
2023/05/25 06:17:08;;;;;;;13.80;10.32;;;;;;;14.59;81.77;95927.81;5068546;28;20311;-88
2023/05/25 06:19:36;;;;;;;11.88;9.70;;;;;;;14.55;81.96;95928.38;5054057;28;20193;-87
2023/05/25 06:22:07;;;;;;;12.68;9.68;;;;;;;14.58;82.31;95935.78;5053282;28;20198;-88
2023/05/25 06:24:37;;;;;;;12.05;9.18;;;;;;;14.69;81.71;95941.19;5049641;28;20307;-87
2023/05/25 06:27:13;;;;;;;11.15;9.25;;;;;;;14.70;81.93;95940.22;5049600;28;20217;-87
2023/05/25 06:29:39;;;;;;;13.70;10.32;;;;;;;14.68;81.32;95941.38;5049648;28;20197;-88
2023/05/25 06:32:06;;;;;;;19.95;17.63;;;;;;;14.75;81.46;95939.63;5049357;28;20292;-87
2023/05/25 06:34:39;;;;;;;16.95;12.43;;;;;;;14.78;81.20;95934.06;5049715;28;20284;-87
2023/05/25 06:37:06;;;;;;;12.80;9.80;;;;;;;14.82;81.48;95940.44;5050122;28;20236;-89
2023/05/25 06:39:35;;;;;;;13.20;9.63;;;;;;;14.80;80.56;95938.06;5051678;28;20232;-88
2023/05/25 06:42:03;;;;;;;11.48;9.68;;;;;;;14.85;81.17;95948.63;5056118;28;20227;-89
2023/05/25 06:44:29;;;;;;;11.93;9.20;;;;;;;14.96;80.34;95952.47;5031468;28;20690;-88
2023/05/25 06:47:02;;;;;;;12.48;9.55;;;;;;;15.05;79.87;95948.72;5064748;28;20784;-88
2023/05/25 06:49:28;;;;;;;12.23;9.52;;;;;;;15.01;79.99;95955.28;5050452;28;20201;-88
2023/05/25 06:51:55;;;;;;;10.77;9.23;;;;;;;14.93;78.99;95950.28;5050343;28;20205;-88
2023/05/25 06:54:21;;;;;;;11.85;9.48;;;;;;;14.92;79.33;95946.09;5049667;28;20694;-88
2023/05/25 06:56:48;;;;;;;10.68;9.18;;;;;;;14.92;79.50;95948.69;5049759;28;20227;-88
2023/05/25 06:59:17;;;;;;;10.90;9.65;;;;;;;14.88;79.99;95957.03;5049738;28;20209;-88
2023/05/25 07:01:43;;;;;;;14.25;10.07;;;;;;;14.91;80.10;95964.41;5066329;28;20623;-88
2023/05/25 07:04:10;;;;;;;12.27;9.98;;;;;;;15.00;79.61;95961.47;5070117;28;20229;-88
2023/05/25 07:06:36;;;;;;;10.52;9.45;;;;;;;15.11;79.62;95957.50;5051081;28;20275;-87
2023/05/25 07:09:03;;;;;;;12.77;9.60;;;;;;;15.05;79.09;95953.09;5052288;28;20208;-88
2023/05/25 07:11:30;;;;;;;11.73;9.15;;;;;;;15.13;78.76;95955.53;5070434;28;20212;-88
2023/05/25 07:13:56;;;;;;;11.70;9.70;;;;;;;15.20;78.03;95964.91;5070121;28;20205;-88
2023/05/25 07:16:25;;;;;;;10.00;8.85;;;;;;;15.07;79.20;95967.47;5070105;28;20235;-88
2023/05/25 07:18:51;;;;;;;11.25;10.05;;;;;;;15.08;79.24;95960.50;5070600;28;20208;-88
2023/05/25 07:21:18;;;;;;;10.60;9.60;;;;;;;15.11;78.50;95963.50;5069639;28;20200;-88
2023/05/25 07:23:44;;;;;;;9.80;8.82;;;;;;;15.18;78.30;95964.31;5070205;28;20204;-88
2023/05/25 07:26:11;;;;;;;10.45;8.98;;;;;;;15.32;77.63;95959.16;5069802;28;20823;-88
2023/05/25 07:28:37;;;;;;;9.73;8.82;;;;;;;15.31;77.00;95953.16;5069420;28;20201;-88
2023/05/25 07:31:04;;;;;;;10.32;9.25;;;;;;;15.18;77.97;95960.94;5069300;28;20197;-88
2023/05/25 07:33:35;;;;;;;12.23;9.93;;;;;;;15.11;78.12;95968.69;5070315;28;20610;-87
2023/05/25 07:36:01;;;;;;;13.23;11.90;;;;;;;15.07;78.48;95974.44;5070222;28;20220;-87
2023/05/25 07:38:28;;;;;;;15.80;12.05;;;;;;;15.09;78.09;95978.44;5063872;28;20202;-87
2023/05/25 07:40:55;;;;;;;11.90;9.27;;;;;;;15.06;77.84;95978.84;5052798;28;20197;-88
2023/05/25 07:43:21;;;;;;;11.45;9.65;;;;;;;15.09;78.47;95988.03;5060474;28;20197;-88
2023/05/25 07:45:48;;;;;;;11.23;9.27;;;;;;;15.16;78.09;95986.25;5068698;28;20221;-88
2023/05/25 07:48:14;;;;;;;12.38;9.10;;;;;;;15.29;77.57;95981.09;5069088;28;20651;-88
2023/05/25 07:50:42;;;;;;;9.77;8.82;;;;;;;15.46;76.89;95991.91;5068665;28;20199;-88
2023/05/25 07:53:08;;;;;;;11.77;9.18;;;;;;;15.46;77.38;95981.53;5068571;28;20235;-87
2023/05/25 07:55:35;;;;;;;10.82;9.00;;;;;;;15.36;76.57;95991.50;5068772;28;20223;-88
2023/05/25 07:58:03;;;;;;;12.10;8.95;;;;;;;15.34;77.06;95986.50;5069099;28;20201;-88
2023/05/25 08:00:30;;;;;;;11.73;9.18;;;;;;;15.44;76.56;95988.72;5062063;28;20599;-88
2023/05/25 08:02:56;;;;;;;10.32;9.18;;;;;;;15.41;76.70;95992.50;5048067;28;20206;-88
2023/05/25 08:05:23;;;;;;;11.57;9.43;;;;;;;15.41;76.57;95996.88;5058509;28;20223;-88
2023/05/25 08:07:52;;;;;;;10.52;9.15;;;;;;;15.47;77.11;95996.91;5068457;28;20207;-88
2023/05/25 08:10:18;;;;;;;12.48;9.43;;;;;;;15.41;76.24;95989.09;5067833;28;20193;-88
2023/05/25 08:12:45;;;;;;;9.40;8.40;;;;;;;15.35;76.76;96003.69;5068337;28;20204;-87
2023/05/25 08:15:12;;;;;;;10.85;8.95;;;;;;;15.41;76.50;96010.66;5067867;28;20204;-88
2023/05/25 08:17:40;;;;;;;10.70;8.88;;;;;;;15.35;76.54;96016.66;5068211;28;20636;-89
2023/05/25 08:20:09;;;;;;;10.27;8.30;;;;;;;15.43;76.12;96007.88;5068083;28;20197;-88
2023/05/25 08:22:36;;;;;;;9.38;8.38;;;;;;;15.43;75.56;96013.88;5067502;28;20229;-88
2023/05/25 08:25:05;;;;;;;9.73;8.73;;;;;;;15.49;76.60;96005.31;5067884;28;20220;-88
2023/05/25 08:27:32;;;;;;;32.13;28.52;;;;;;;15.60;77.12;96011.72;5068324;28;20829;-88
2023/05/25 08:29:58;;;;;;;11.70;10.18;;;;;;;15.55;76.33;96016.72;5068309;28;20205;-88
2023/05/25 08:32:25;;;;;;;10.30;9.27;;;;;;;15.47;76.87;96015.06;5069932;28;20204;-88
2023/05/25 08:34:51;;;;;;;9.77;8.77;;;;;;;15.51;76.49;96015.50;5072303;28;20247;-87
2023/05/25 08:37:18;;;;;;;11.50;9.07;;;;;;;15.38;77.07;96023.25;5043813;28;20236;-88
2023/05/25 08:39:45;;;;;;;10.20;9.00;;;;;;;15.47;76.47;96016.88;5056531;28;20201;-88
2023/05/25 08:42:13;;;;;;;9.82;8.82;;;;;;;15.49;77.00;96007.91;5051554;28;20296;-88
2023/05/25 08:44:40;;;;;;;9.73;8.73;;;;;;;15.53;76.19;96029.06;5051461;28;20839;-88
2023/05/25 08:47:07;;;;;;;9.55;8.65;;;;;;;15.62;76.58;96022.72;5051640;28;20232;-88
2023/05/25 08:49:37;;;;;;;9.85;8.63;;;;;;;15.53;76.20;96016.91;5050875;28;20694;-88
2023/05/25 08:52:04;;;;;;;9.57;8.57;;;;;;;15.64;76.31;96019.94;5051164;28;20783;-88
2023/05/25 08:54:35;;;;;;;27.90;24.90;;;;;;;15.68;76.81;96026.34;5051307;28;20209;-88
2023/05/25 08:57:07;;;;;;;11.63;9.07;;;;;;;15.66;75.64;96026.53;5051143;28;20229;-88
2023/05/25 08:59:42;;;;;;;9.60;8.60;;;;;;;15.64;75.95;96033.72;5051338;28;20201;-88
2023/05/25 09:02:33;;;;;;;11.13;8.57;;;;;;;15.78;75.73;96035.31;5070483;28;20196;-88
2023/05/25 09:05:00;;;;;;;9.82;7.75;;;;;;;15.78;75.07;96037.91;5071010;28;20299;-88
2023/05/25 09:07:28;;;;;;;9.00;8.15;;;;;;;15.84;74.74;96038.94;5071101;28;20650;-88
2023/05/25 09:09:55;;;;;;;9.05;8.02;;;;;;;15.92;74.74;96046.56;5071037;28;20193;-88
2023/05/25 09:12:22;;;;;;;9.55;8.55;;;;;;;15.87;75.30;96049.75;5071482;28;20204;-89
2023/05/25 09:14:51;;;;;;;9.32;8.27;;;;;;;15.88;75.05;96040.16;5071544;28;20200;-87
2023/05/25 09:17:18;;;;;;;8.93;8.02;;;;;;;15.95;75.07;96040.97;5071326;28;20228;-88
2023/05/25 09:19:45;;;;;;;8.82;7.90;;;;;;;15.99;75.18;96036.94;5071090;28;20212;-88
2023/05/25 09:22:13;;;;;;;9.20;8.40;;;;;;;16.03;74.82;96045.94;5070559;28;20674;-88
2023/05/25 09:24:54;;;;;;;8.43;7.70;;;;;;;16.01;74.42;96039.34;5070873;28;20201;-88
2023/05/25 09:27:23;;;;;;;9.13;7.65;;;;;;;15.91;74.71;96054.53;5070511;28;20224;-88
2023/05/25 09:29:52;;;;;;;8.25;7.43;;;;;;;15.75;75.09;96051.31;5070856;28;20204;-88
2023/05/25 09:32:19;;;;;;;8.57;7.75;;;;;;;15.82;75.73;96059.09;5070931;28;20206;-89
2023/05/25 09:34:46;;;;;;;9.82;7.93;;;;;;;16.00;75.11;96059.34;5064873;28;20739;-88
2023/05/25 09:37:15;;;;;;;9.77;8.05;;;;;;;16.08;75.07;96058.34;5068014;28;20217;-87
2023/05/25 09:39:42;;;;;;;9.10;8.13;;;;;;;16.06;75.29;96076.72;5068888;28;20753;-88
2023/05/25 09:42:09;;;;;;;8.80;7.97;;;;;;;16.28;74.72;96068.75;5070377;28;20246;-88
2023/05/25 09:44:37;;;;;;;8.35;7.55;;;;;;;16.42;74.38;96067.75;5070558;28;20275;-87
2023/05/25 09:47:06;;;;;;;9.90;8.90;;;;;;;16.45;73.49;96072.53;5070547;28;20609;-89
2023/05/25 09:49:33;;;;;;;9.63;8.13;;;;;;;16.42;73.17;96071.16;5070318;28;20197;-87
2023/05/25 09:52:00;;;;;;;8.95;8.05;;;;;;;16.30;73.22;96067.56;5069497;28;20209;-88
2023/05/25 09:54:27;;;;;;;8.85;7.70;;;;;;;16.20;74.36;96067.13;5069920;28;20214;-88
2023/05/25 09:56:54;;;;;;;8.80;8.00;;;;;;;16.17;74.75;96064.94;5069449;28;20221;-88
2023/05/25 09:59:22;;;;;;;14.90;11.90;;;;;;;16.10;74.33;96074.53;5069658;28;20224;-87
2023/05/25 10:01:50;;;;;;;10.52;8.32;;;;;;;16.07;74.03;96061.94;5051195;28;20198;-88
2023/05/25 10:04:18;;;;;;;8.95;8.07;;;;;;;16.19;74.20;96065.53;5050248;28;20228;-87
2023/05/25 10:06:48;;;;;;;9.73;8.68;;;;;;;16.16;73.84;96071.94;5069573;28;20221;-88
2023/05/25 10:09:27;;;;;;;8.82;8.02;;;;;;;16.18;73.71;96072.53;5069189;28;20215;-87
2023/05/25 10:11:57;;;;;;;8.70;7.82;;;;;;;16.17;73.69;96067.53;5069240;28;20209;-87
2023/05/25 10:14:33;;;;;;;9.38;8.35;;;;;;;16.23;73.51;96077.13;5069672;28;20200;-88
2023/05/25 10:17:03;;;;;;;8.60;7.80;;;;;;;16.23;73.78;96077.13;5069579;28;20227;-87
2023/05/25 10:19:42;;;;;;;10.20;9.20;;;;;;;16.19;74.07;96075.94;5069615;28;20666;-88
2023/05/25 10:22:15;;;;;;;9.95;9.00;;;;;;;16.23;73.03;96074.53;5069748;28;20201;-88
2023/05/25 10:24:54;;;;;;;10.23;9.23;;;;;;;16.28;73.54;96081.75;5069417;28;20232;-88
2023/05/25 10:27:29;;;;;;;10.80;9.70;;;;;;;16.26;73.25;96089.75;5068962;28;20221;-88
2023/05/25 10:29:56;;;;;;;11.00;9.68;;;;;;;16.21;73.99;96081.72;5069200;28;20204;-88
2023/05/25 10:32:32;;;;;;;9.52;8.68;;;;;;;16.36;74.08;96073.72;5060627;28;20205;-88
2023/05/25 10:35:06;;;;;;;10.65;9.57;;;;;;;16.42;74.02;96073.75;5069339;28;20224;-88
2023/05/25 10:37:34;;;;;;;13.13;10.00;;;;;;;16.45;73.03;96070.75;5069356;28;20251;-87
2023/05/25 10:40:01;;;;;;;10.52;9.63;;;;;;;16.50;73.06;96072.75;5067215;28;20201;-88
2023/05/25 10:42:28;;;;;;;10.40;9.27;;;;;;;16.48;72.99;96067.75;5069078;28;20283;-88
2023/05/25 10:44:56;;;;;;;12.23;9.25;;;;;;;16.60;72.88;96073.13;5069177;28;20200;-88
2023/05/25 10:47:23;;;;;;;10.23;9.40;;;;;;;16.66;72.65;96074.16;5068559;28;20232;-88
2023/05/25 10:49:54;;;;;;;9.60;8.68;;;;;;;16.86;72.76;96067.13;5069504;28;20561;-88
2023/05/25 10:52:26;;;;;;;9.95;8.98;;;;;;;16.89;71.57;96070.13;5068912;28;20204;-89
2023/05/25 10:54:55;;;;;;;10.48;9.48;;;;;;;16.97;72.18;96070.88;5068169;28;20203;-88
2023/05/25 10:57:23;;;;;;;41.20;34.75;;;;;;;16.98;72.49;96072.50;5069006;28;20216;-88
2023/05/25 10:59:50;;;;;;;16.52;14.93;;;;;;;17.07;71.49;96068.69;5067566;28;20208;-88
2023/05/25 11:02:21;;;;;;;11.00;10.00;;;;;;;17.06;71.87;96067.88;5047960;28;20205;-88
2023/05/25 11:04:48;;;;;;;11.50;10.40;;;;;;;17.07;71.59;96063.47;5053951;28;20273;-88
2023/05/25 11:07:18;;;;;;;10.90;10.00;;;;;;;17.11;71.31;96069.88;5068766;28;20319;-88
2023/05/25 11:09:58;;;;;;;11.05;10.05;;;;;;;17.17;72.58;96071.63;5067939;28;20251;-88
2023/05/25 11:12:24;;;;;;;10.93;9.82;;;;;;;17.18;71.81;96071.44;5068359;28;20212;-88
2023/05/25 11:15:18;;;;;;;11.27;10.25;;;;;;;17.13;70.38;96070.44;5068470;28;20208;-88
2023/05/25 11:17:57;;;;;;;10.90;9.80;;;;;;;17.24;71.45;96080.22;5068813;28;20258;-88
2023/05/25 11:20:27;;;;;;;10.73;9.82;;;;;;;17.19;70.86;96072.22;5068556;28;20655;-89
2023/05/25 11:22:54;;;;;;;10.93;9.80;;;;;;;17.21;71.33;96070.22;5068328;28;20674;-88
2023/05/25 11:25:43;;;;;;;12.10;9.63;;;;;;;17.31;72.36;96070.59;5040749;28;20714;-88
2023/05/25 11:28:11;;;;;;;11.07;10.00;;;;;;;17.41;71.42;96065.75;5057504;28;20197;-89
2023/05/25 11:30:45;;;;;;;10.15;9.25;;;;;;;17.56;70.93;96074.06;5068976;28;20662;-88
2023/05/25 11:33:12;;;;;;;19.33;17.38;;;;;;;17.59;69.27;96065.84;5068602;28;20209;-88
2023/05/25 11:35:38;;;;;;;14.80;13.25;;;;;;;17.61;69.04;96063.03;5068518;28;20286;-88
2023/05/25 11:38:06;;;;;;;10.13;9.20;;;;;;;17.76;69.98;96054.97;5066040;28;20216;-88
2023/05/25 11:40:33;;;;;;;10.07;9.27;;;;;;;17.89;70.42;96055.72;5068202;28;20204;-88
2023/05/25 11:43:02;;;;;;;10.02;9.02;;;;;;;17.97;68.62;96059.06;5067783;28;20226;-88
2023/05/25 11:45:30;;;;;;;9.60;8.70;;;;;;;18.11;69.52;96055.34;5067767;28;20315;-88
2023/05/25 11:48:00;;;;;;;9.50;8.70;;;;;;;18.29;69.07;96063.22;5067951;28;20204;-88
2023/05/25 11:50:27;;;;;;;10.05;9.10;;;;;;;18.38;68.00;96059.34;5068140;28;20205;-88
2023/05/25 11:52:56;;;;;;;9.73;8.73;;;;;;;18.33;67.24;96051.34;5067752;28;20209;-88
2023/05/25 11:55:32;;;;;;;10.10;9.23;;;;;;;18.21;67.60;96046.06;5068104;28;20204;-87
2023/05/25 11:57:58;;;;;;;9.73;8.85;;;;;;;18.28;67.79;96045.97;5068212;28;20208;-88
2023/05/25 12:00:41;;;;;;;10.63;9.55;;;;;;;18.38;67.85;96041.09;5061663;28;20581;-88
2023/05/25 12:03:10;;;;;;;10.20;9.40;;;;;;;18.36;67.60;96032.69;5047295;28;20231;-88
2023/05/25 12:05:38;;;;;;;10.30;9.50;;;;;;;18.28;68.70;96046.78;5060269;28;20247;-87
2023/05/25 12:08:05;;;;;;;9.98;8.85;;;;;;;18.17;68.54;96042.28;5071748;28;20209;-88
2023/05/25 12:10:31;;;;;;;9.48;8.68;;;;;;;18.28;68.86;96040.75;5071007;28;20201;-88
2023/05/25 12:13:03;;;;;;;9.52;8.48;;;;;;;18.44;68.80;96031.63;5071360;28;20681;-88
2023/05/25 12:15:34;;;;;;;12.18;10.98;;;;;;;18.78;67.96;96030.31;5071569;28;20220;-88
2023/05/25 12:18:02;;;;;;;25.20;22.48;;;;;;;19.05;66.59;96033.47;5071423;28;20713;-89
2023/05/25 12:20:29;;;;;;;11.23;10.13;;;;;;;19.19;65.40;96027.06;5071657;28;20212;-88
2023/05/25 12:22:55;;;;;;;9.57;8.57;;;;;;;19.37;64.95;96031.47;5043138;28;20300;-88
2023/05/25 12:25:23;;;;;;;9.25;8.10;;;;;;;19.22;63.81;96037.06;5062701;28;20199;-88
2023/05/25 12:27:50;;;;;;;7.60;6.97;;;;;;;19.60;64.54;96034.22;5071553;28;20243;-88
2023/05/25 12:30:21;;;;;;;7.35;6.75;;;;;;;19.87;63.36;96039.84;5071183;28;20196;-88
2023/05/25 12:32:59;;;;;;;8.20;7.50;;;;;;;19.85;62.09;96039.25;5071136;28;20197;-88
2023/05/25 12:35:26;;;;;;;8.23;7.55;;;;;;;20.22;61.14;96032.06;5071638;28;20224;-88
2023/05/25 12:38:10;;;;;;;8.90;7.53;;;;;;;20.40;60.69;96031.22;5070047;28;20199;-88
2023/05/25 12:40:39;;;;;;;8.27;7.57;;;;;;;20.43;60.30;96026.31;5051197;28;20217;-88
2023/05/25 12:43:16;;;;;;;7.25;6.55;;;;;;;20.56;59.84;96030.53;5051035;28;20204;-88
2023/05/25 12:45:52;;;;;;;7.82;7.13;;;;;;;20.88;58.95;96030.97;5051176;28;20213;-88
2023/05/25 12:48:30;;;;;;;8.77;7.88;;;;;;;21.09;57.61;96032.97;5050792;28;20196;-88